Time;durP1;ratioP1;P1;durP2;ratioP2;P2;SDS_P1;SDS_P2;PMS_P1;PMS_P2;Temp;Humidity;BMP_temperature;BMP_pressure;BME280_temperature;BME280_humidity;BME280_pressure;Samples;Min_cycle;Max_cycle;Signal;HPM_P1;HPM_P2
2021/06/22 00:05:13;;;;;;;3.08;0.90;;;23.60;68.50;;;;;;20820518;28;20036;-20
2021/06/22 00:15:17;;;;;;;3.17;0.70;;;23.60;68.50;;;;;;20829499;28;20398;-20
2021/06/22 00:25:18;;;;;;;4.35;0.68;;;23.60;68.50;;;;;;20822453;28;20115;-21
2021/06/22 00:35:20;;;;;;;2.08;0.70;;;23.60;68.40;;;;;;20821636;28;20623;-20
2021/06/22 00:45:28;;;;;;;2.50;0.95;;;23.60;68.50;;;;;;20811457;28;20779;-20
2021/06/22 00:55:30;;;;;;;4.30;0.90;;;23.60;68.30;;;;;;20790450;28;20443;-20
2021/06/22 01:05:32;;;;;;;1.63;0.80;;;23.50;68.60;;;;;;20806655;28;20102;-20
2021/06/22 01:15:33;;;;;;;1.85;0.73;;;23.60;68.30;;;;;;20810406;28;20048;-20
2021/06/22 01:25:34;;;;;;;3.83;1.30;;;23.50;68.20;;;;;;20822627;28;20038;-20
2021/06/22 01:35:35;;;;;;;2.97;1.02;;;23.60;68.10;;;;;;20798640;28;20037;-20
2021/06/22 01:45:35;;;;;;;4.03;1.10;;;23.50;68.00;;;;;;20803744;28;20035;-20
2021/06/22 01:55:43;;;;;;;1.63;1.10;;;23.50;68.10;;;;;;20801308;28;20937;-20
2021/06/22 02:05:45;;;;;;;3.40;1.10;;;23.50;68.00;;;;;;20809677;28;20140;-20
2021/06/22 02:15:46;;;;;;;2.10;1.15;;;23.50;67.90;;;;;;20806354;28;20120;-20
2021/06/22 02:25:46;;;;;;;4.25;1.52;;;23.50;67.90;;;;;;20820113;28;20065;-20
2021/06/22 02:35:47;;;;;;;2.75;1.20;;;23.50;67.80;;;;;;20819391;28;20041;-20
2021/06/22 02:45:48;;;;;;;4.35;1.17;;;23.50;67.90;;;;;;20820004;28;20068;-20
2021/06/22 02:55:49;;;;;;;2.55;1.55;;;23.40;67.80;;;;;;20819748;28;20056;-20
2021/06/22 03:05:49;;;;;;;2.03;1.38;;;23.40;67.60;;;;;;20819002;28;20481;-20
2021/06/22 03:15:50;;;;;;;3.65;1.40;;;23.40;67.60;;;;;;20831981;28;20029;-20
2021/06/22 03:25:50;;;;;;;5.43;1.52;;;23.40;67.60;;;;;;20834440;28;20029;-20
2021/06/22 03:35:51;;;;;;;3.75;1.48;;;23.40;67.50;;;;;;20833830;28;20039;-20
2021/06/22 03:45:54;;;;;;;2.92;1.50;;;23.40;67.50;;;;;;20833152;28;20095;-20
2021/06/22 03:55:55;;;;;;;3.38;1.30;;;23.40;67.40;;;;;;20832279;28;20489;-20
2021/06/22 04:05:56;;;;;;;6.22;2.20;;;23.40;67.20;;;;;;20831246;28;20099;-20
2021/06/22 04:15:56;;;;;;;2.67;1.58;;;23.40;67.40;;;;;;20833647;28;20096;-20
2021/06/22 04:25:57;;;;;;;4.43;2.03;;;23.40;67.40;;;;;;20829761;28;20036;-20
2021/06/22 04:35:58;;;;;;;2.42;1.40;;;23.40;67.40;;;;;;20829683;28;20037;-20
2021/06/22 04:45:59;;;;;;;5.13;1.45;;;23.40;67.20;;;;;;20828981;28;20482;-20
2021/06/22 04:55:59;;;;;;;3.65;1.60;;;23.40;67.30;;;;;;20828818;28;20514;-20
2021/06/22 05:06:00;;;;;;;6.65;1.77;;;23.40;67.20;;;;;;20811596;28;20037;-20
2021/06/22 05:16:01;;;;;;;5.25;2.22;;;23.30;67.00;;;;;;20810914;28;20102;-20
2021/06/22 05:26:02;;;;;;;3.80;2.00;;;23.30;67.10;;;;;;20815642;28;20038;-20
2021/06/22 05:36:03;;;;;;;4.30;1.77;;;23.40;67.10;;;;;;20811814;28;20116;-20
2021/06/22 05:46:04;;;;;;;4.90;2.08;;;23.40;66.70;;;;;;20806717;28;20033;-19
2021/06/22 05:56:04;;;;;;;23.25;6.03;;;23.30;66.10;;;;;;20806872;28;20037;-20
2021/06/22 06:06:05;;;;;;;39.57;11.10;;;23.30;65.80;;;;;;20815637;28;20552;-21
2021/06/22 06:16:07;;;;;;;24.33;5.68;;;23.40;65.00;;;;;;20814828;28;20104;-21
2021/06/22 06:26:09;;;;;;;13.20;4.47;;;23.30;60.80;;;;;;20811411;28;20478;-21
2021/06/22 06:36:10;;;;;;;16.55;4.72;;;23.20;59.70;;;;;;20809319;28;20033;-19
2021/06/22 06:46:11;;;;;;;11.77;3.67;;;23.00;56.70;;;;;;20804095;22;20053;-21
2021/06/22 06:56:11;;;;;;;14.90;3.23;;;23.00;56.20;;;;;;20769460;28;20077;-20
2021/06/22 07:06:13;;;;;;;10.10;3.08;;;22.90;55.90;;;;;;20722728;28;20468;-25
2021/06/22 07:16:15;;;;;;;12.32;3.25;;;22.80;54.60;;;;;;20752698;28;20113;-20
2021/06/22 07:26:15;;;;;;;12.07;2.97;;;22.70;55.00;;;;;;20733585;28;20040;-21
2021/06/22 07:36:16;;;;;;;6.25;3.63;;;22.90;57.60;;;;;;20709016;28;20038;-21
2021/06/22 07:46:17;;;;;;;10.05;3.17;;;23.00;58.70;;;;;;20754720;28;20552;-21
2021/06/22 07:56:17;;;;;;;7.70;2.63;;;23.10;59.60;;;;;;20765561;28;20033;-19
2021/06/22 08:06:18;;;;;;;9.53;2.93;;;23.20;60.00;;;;;;20782608;28;21056;-20
2021/06/22 08:16:19;;;;;;;8.53;2.90;;;23.30;60.30;;;;;;20764566;28;20025;-21
2021/06/22 08:26:19;;;;;;;7.07;3.43;;;23.30;60.60;;;;;;20782234;28;20041;-21
2021/06/22 08:36:20;;;;;;;11.43;2.97;;;23.30;61.10;;;;;;20731691;28;20499;-21
2021/06/22 08:46:21;;;;;;;9.60;3.63;;;23.40;61.60;;;;;;20740571;28;20201;-20
2021/06/22 08:56:25;;;;;;;11.95;4.32;;;23.40;62.00;;;;;;20774700;28;20472;-21
2021/06/22 09:06:26;;;;;;;8.85;3.40;;;23.40;62.10;;;;;;20758500;28;20022;-21
2021/06/22 09:16:28;;;;;;;11.98;3.13;;;23.40;62.10;;;;;;20757721;28;20095;-20
2021/06/22 09:26:32;;;;;;;11.90;2.92;;;23.40;62.20;;;;;;20776048;28;20025;-21
2021/06/22 09:36:33;;;;;;;14.65;2.90;;;23.40;62.30;;;;;;20751616;28;20061;-21
2021/06/22 09:46:49;;;;;;;13.77;3.85;;;23.50;62.50;;;;;;20766634;28;20033;-21
2021/06/22 09:57:04;;;;;;;8.25;3.22;;;23.50;62.40;;;;;;20747675;28;20036;-20
2021/06/22 10:07:09;;;;;;;11.73;3.00;;;23.50;62.60;;;;;;20713029;28;20025;-21
2021/06/22 10:17:14;;;;;;;11.45;3.70;;;23.50;62.50;;;;;;20769207;28;20429;-21
2021/06/22 10:27:17;;;;;;;10.85;3.10;;;23.50;62.40;;;;;;20768071;28;20038;-21
2021/06/22 10:37:38;;;;;;;7.68;2.80;;;23.50;62.50;;;;;;20737765;28;20035;-19
2021/06/22 10:47:42;;;;;;;10.85;2.78;;;23.50;62.20;;;;;;20743330;28;20060;-20
2021/06/22 10:58:08;;;;;;;4.47;1.92;;;23.60;62.30;;;;;;20767978;28;20033;-21
2021/06/22 11:08:11;;;;;;;6.72;2.50;;;23.50;62.40;;;;;;20732802;28;20394;-21
2021/06/22 11:18:19;;;;;;;6.72;2.95;;;23.50;62.20;;;;;;20673209;28;20526;-22
2021/06/22 11:28:22;;;;;;;6.40;2.20;;;23.60;62.30;;;;;;20671673;28;20027;-21
2021/06/22 11:38:22;;;;;;;4.93;2.25;;;23.50;62.10;;;;;;20718586;28;20071;-22
2021/06/22 11:48:56;;;;;;;8.23;2.20;;;23.50;62.00;;;;;;20725669;28;20062;-20
2021/06/22 11:58:59;;;;;;;7.45;2.17;;;23.60;62.20;;;;;;20777972;28;20041;-20
2021/06/22 12:09:00;;;;;;;6.70;2.20;;;23.50;62.10;;;;;;20762272;28;20410;-20
2021/06/22 12:19:04;;;;;;;6.40;2.15;;;23.50;61.90;;;;;;20780681;28;20064;-20
2021/06/22 12:29:26;;;;;;;3.95;2.28;;;23.60;61.80;;;;;;20784980;28;20037;-20
2021/06/22 12:39:37;;;;;;;3.72;1.65;;;23.60;61.90;;;;;;20773985;28;20030;-20
2021/06/22 12:49:39;;;;;;;4.57;1.95;;;23.50;61.40;;;;;;20774139;23;20045;-20
2021/06/22 12:59:48;;;;;;;4.50;1.80;;;23.50;61.10;;;;;;20766270;28;20561;-19
2021/06/22 13:09:51;;;;;;;3.22;1.58;;;23.50;61.00;;;;;;20790100;28;20029;-20
2021/06/22 13:19:56;;;;;;;2.53;1.67;;;23.50;60.90;;;;;;20774061;28;20091;-20
2021/06/22 13:30:07;;;;;;;4.65;2.17;;;23.50;60.80;;;;;;20746243;28;20172;-20
2021/06/22 13:40:08;;;;;;;4.90;1.75;;;23.50;60.60;;;;;;20743402;28;20402;-20
2021/06/22 13:50:24;;;;;;;3.63;1.85;;;23.50;60.40;;;;;;20761495;28;20041;-20
2021/06/22 14:00:25;;;;;;;4.50;1.70;;;23.50;60.60;;;;;;20770317;28;20121;-19
2021/06/22 14:10:27;;;;;;;4.47;1.67;;;23.50;60.60;;;;;;20746811;28;20081;-19
2021/06/22 14:20:28;;;;;;;3.10;1.65;;;23.50;60.50;;;;;;20740336;28;20066;-19
2021/06/22 14:30:28;;;;;;;5.45;2.25;;;23.50;60.90;;;;;;20722864;28;20026;-19
2021/06/22 14:40:29;;;;;;;4.03;1.93;;;23.50;61.00;;;;;;20748668;28;20030;-20
2021/06/22 14:50:32;;;;;;;4.75;2.13;;;23.40;60.40;;;;;;20688017;28;20401;-20
2021/06/22 15:00:41;;;;;;;2.85;1.40;;;23.40;60.40;;;;;;20748401;28;20041;-19
2021/06/22 15:10:42;;;;;;;3.22;1.85;;;23.40;60.50;;;;;;20759308;28;20028;-20
2021/06/22 15:20:44;;;;;;;5.18;2.03;;;23.40;60.30;;;;;;20794562;28;20029;-20
2021/06/22 15:30:45;;;;;;;3.67;1.55;;;23.40;60.20;;;;;;20754835;28;20026;-20
2021/06/22 15:40:47;;;;;;;3.72;1.48;;;23.40;60.10;;;;;;20762947;28;20121;-19
2021/06/22 15:50:47;;;;;;;3.70;1.88;;;23.40;60.00;;;;;;20766663;28;20044;-19
2021/06/22 16:00:48;;;;;;;4.70;2.27;;;23.40;60.10;;;;;;20754110;28;20510;-20
2021/06/22 16:10:49;;;;;;;4.05;2.13;;;23.40;60.10;;;;;;20752908;28;20022;-20
2021/06/22 16:20:49;;;;;;;2.70;1.75;;;23.40;60.00;;;;;;20750415;28;20025;-19
2021/06/22 16:30:50;;;;;;;4.75;2.20;;;23.40;60.20;;;;;;20754340;28;20034;-19
2021/06/22 16:40:51;;;;;;;6.07;2.20;;;23.40;60.30;;;;;;20655866;28;20609;-21
2021/06/22 16:50:52;;;;;;;10.23;2.60;;;23.30;60.30;;;;;;20664061;28;20410;-20
2021/06/22 17:00:52;;;;;;;15.33;3.43;;;23.30;60.60;;;;;;20663696;28;20539;-20
2021/06/22 17:10:53;;;;;;;62.38;8.38;;;23.30;60.30;;;;;;20673609;28;20453;-19
2021/06/22 17:20:53;;;;;;;37.05;4.63;;;23.30;60.60;;;;;;20729364;28;20031;-19
2021/06/22 17:30:54;;;;;;;31.43;5.67;;;23.30;61.00;;;;;;20710558;28;20033;-19
2021/06/22 17:40:55;;;;;;;19.65;3.45;;;23.40;60.60;;;;;;20742085;28;20034;-19
2021/06/22 17:50:55;;;;;;;16.65;4.25;;;23.40;60.50;;;;;;20702240;28;20042;-19
2021/06/22 18:00:57;;;;;;;20.58;5.07;;;23.40;60.50;;;;;;20763733;28;20030;-19
2021/06/22 18:10:58;;;;;;;29.73;5.78;;;23.40;60.70;;;;;;20745411;28;20069;-19
2021/06/22 18:20:58;;;;;;;26.15;5.03;;;23.40;60.80;;;;;;20707690;28;20061;-20
2021/06/22 18:30:59;;;;;;;19.83;4.60;;;23.40;60.60;;;;;;20678375;28;20482;-19
2021/06/22 18:41:03;;;;;;;27.73;4.10;;;23.40;60.30;;;;;;20762355;28;20034;-19
2021/06/22 18:51:04;;;;;;;27.27;4.90;;;23.30;60.20;;;;;;20809143;23;20518;-20
2021/06/22 19:01:04;;;;;;;7.45;3.92;;;23.20;59.70;;;;;;20877643;28;20040;-20
2021/06/22 19:11:05;;;;;;;18.38;4.15;;;23.20;59.60;;;;;;20859563;28;20057;-20
2021/06/22 19:21:06;;;;;;;11.52;3.88;;;23.20;59.50;;;;;;20872954;28;20025;-20
2021/06/22 19:31:06;;;;;;;15.75;3.97;;;23.10;59.10;;;;;;20888330;28;20561;-20
2021/06/22 19:41:07;;;;;;;12.43;4.10;;;23.10;59.00;;;;;;20850847;28;20155;-21
2021/06/22 19:51:08;;;;;;;12.32;3.67;;;23.20;59.90;;;;;;20898281;28;20037;-20
2021/06/22 20:01:12;;;;;;;8.63;3.85;;;23.20;59.80;;;;;;20887761;28;20032;-19
2021/06/22 20:11:12;;;;;;;9.02;3.42;;;23.10;59.60;;;;;;20888628;28;20021;-19
2021/06/22 20:21:13;;;;;;;14.80;4.27;;;23.10;59.80;;;;;;20896565;28;20054;-19
2021/06/22 20:31:14;;;;;;;12.50;3.08;;;23.10;59.60;;;;;;20900431;28;20299;-19
2021/06/22 20:41:15;;;;;;;8.65;3.00;;;23.10;59.50;;;;;;20891554;28;20033;-20
2021/06/22 20:51:15;;;;;;;6.03;3.08;;;23.10;59.20;;;;;;20890756;28;20075;-19
2021/06/22 21:01:17;;;;;;;7.93;3.40;;;23.10;59.00;;;;;;20874287;28;20068;-19
2021/06/22 21:11:18;;;;;;;6.53;3.22;;;23.10;59.00;;;;;;20864423;28;20034;-19
2021/06/22 21:21:18;;;;;;;7.97;2.90;;;23.10;58.80;;;;;;20868878;28;20135;-19
2021/06/22 21:31:19;;;;;;;5.40;2.47;;;23.00;58.50;;;;;;20872046;28;20087;-19
2021/06/22 21:41:19;;;;;;;4.40;2.75;;;23.00;58.30;;;;;;20872029;28;20546;-18
2021/06/22 21:51:20;;;;;;;9.33;2.57;;;23.10;58.50;;;;;;20893545;28;20025;-19
2021/06/22 22:01:21;;;;;;;5.28;2.65;;;22.90;57.60;;;;;;20884725;28;20639;-18
2021/06/22 22:11:21;;;;;;;14.80;3.55;;;23.00;58.10;;;;;;20865500;28;20033;-18
2021/06/22 22:21:22;;;;;;;12.40;3.63;;;22.90;59.10;;;;;;20903831;28;21104;-18
2021/06/22 22:31:23;;;;;;;11.93;4.50;;;22.90;58.90;;;;;;20809702;28;20136;-19
2021/06/22 22:41:23;;;;;;;13.73;3.63;;;22.90;58.90;;;;;;20881898;28;20033;-19
2021/06/22 22:51:24;;;;;;;26.70;4.43;;;22.90;58.70;;;;;;20898441;28;20033;-20
2021/06/22 23:01:24;;;;;;;12.32;3.28;;;22.80;57.10;;;;;;20904084;28;20025;-19
2021/06/22 23:11:25;;;;;;;12.18;3.25;;;22.80;56.20;;;;;;20890149;28;20083;-19
2021/06/22 23:21:26;;;;;;;5.73;2.80;;;22.70;54.90;;;;;;20904107;28;20148;-19
2021/06/22 23:31:27;;;;;;;8.15;2.47;;;22.70;54.60;;;;;;20913618;28;20451;-19
2021/06/22 23:41:27;;;;;;;8.30;2.85;;;22.70;54.10;;;;;;20882714;28;20026;-19
2021/06/22 23:51:28;;;;;;;9.80;3.63;;;22.70;53.90;;;;;;20906284;28;20595;-20
